createdAt,value
2023-02-26T00:01:46.829Z,4.53
2023-02-26T00:04:16.517Z,4.47
2023-02-26T00:06:53.313Z,4.63
2023-02-26T00:09:23.614Z,4.60
2023-02-26T00:11:51.918Z,4.47
2023-02-26T00:14:21.234Z,4.67
2023-02-26T00:16:55.485Z,4.33
2023-02-26T00:19:27.627Z,4.60
2023-02-26T00:21:56.334Z,5.30
2023-02-26T00:24:24.530Z,4.90
2023-02-26T00:26:52.557Z,4.00
2023-02-26T00:29:21.543Z,4.33
2023-02-26T00:31:50.415Z,4.17
2023-02-26T00:34:19.065Z,4.67
2023-02-26T00:36:53.236Z,4.60
2023-02-26T00:39:36.716Z,4.83
2023-02-26T00:42:05.439Z,5.07
2023-02-26T00:44:34.403Z,5.43
2023-02-26T00:47:09.982Z,5.40
2023-02-26T00:49:50.589Z,4.97
2023-02-26T00:52:28.356Z,4.90
2023-02-26T00:54:56.309Z,5.27
2023-02-26T00:57:26.434Z,5.43
2023-02-26T00:59:54.389Z,5.17
2023-02-26T01:02:22.754Z,5.63
2023-02-26T01:04:51.467Z,5.23
2023-02-26T01:07:24.524Z,5.93
2023-02-26T01:09:53.374Z,5.80
2023-02-26T01:12:24.835Z,5.73
2023-02-26T01:14:53.332Z,5.63
2023-02-26T01:17:29.278Z,4.83
2023-02-26T01:20:02.487Z,4.83
2023-02-26T01:22:37.202Z,4.83
2023-02-26T01:25:09.453Z,5.17
2023-02-26T01:27:38.100Z,4.53
2023-02-26T01:30:10.489Z,5.53
2023-02-26T01:32:45.271Z,5.20
2023-02-26T01:35:31.338Z,4.80
2023-02-26T01:38:04.561Z,4.80
2023-02-26T01:40:52.723Z,4.97
2023-02-26T01:43:29.846Z,4.77
2023-02-26T01:46:06.512Z,4.63
2023-02-26T01:48:39.039Z,4.37
2023-02-26T01:51:07.222Z,4.70
2023-02-26T01:53:36.586Z,4.77
2023-02-26T01:56:13.150Z,4.90
2023-02-26T01:58:44.074Z,4.30
2023-02-26T02:01:12.110Z,4.23
2023-02-26T02:03:42.235Z,4.60
2023-02-26T02:06:12.553Z,4.40
2023-02-26T02:08:41.929Z,4.27
2023-02-26T02:11:12.415Z,4.10
2023-02-26T02:13:55.545Z,4.63
2023-02-26T02:16:32.175Z,4.30
2023-02-26T02:19:13.169Z,4.70
2023-02-26T02:21:54.229Z,5.00
2023-02-26T02:24:35.727Z,4.30
2023-02-26T02:27:15.028Z,4.67
2023-02-26T02:30:16.682Z,4.63
2023-02-26T02:32:50.309Z,4.10
2023-02-26T02:35:23.782Z,4.50
2023-02-26T02:37:57.679Z,4.90
2023-02-26T02:40:30.039Z,4.37
2023-02-26T02:43:03.421Z,4.20
2023-02-26T02:45:38.399Z,4.67
2023-02-26T02:48:14.953Z,4.80
2023-02-26T02:50:48.719Z,4.53
2023-02-26T02:53:20.597Z,5.03
2023-02-26T02:55:55.781Z,4.83
2023-02-26T02:58:27.287Z,4.30
2023-02-26T03:00:59.284Z,4.03
2023-02-26T03:03:34.386Z,4.80
2023-02-26T03:06:02.760Z,4.17
2023-02-26T03:08:35.994Z,4.37
2023-02-26T03:11:04.029Z,4.40
2023-02-26T03:13:32.747Z,4.40
2023-02-26T03:16:15.522Z,4.17
2023-02-26T03:18:53.509Z,3.87
2023-02-26T03:21:28.422Z,4.00
2023-02-26T03:24:02.273Z,3.97
2023-02-26T03:26:34.624Z,4.43
2023-02-26T03:29:17.047Z,4.23
2023-02-26T03:31:54.558Z,3.90
2023-02-26T03:34:31.485Z,4.10
2023-02-26T03:37:05.882Z,4.03
2023-02-26T03:39:39.770Z,3.90
2023-02-26T03:42:12.620Z,3.77
2023-02-26T03:44:48.123Z,4.30
2023-02-26T03:47:17.346Z,3.87
2023-02-26T03:49:51.367Z,4.03
2023-02-26T03:52:21.930Z,3.43
2023-02-26T03:55:00.858Z,3.67
2023-02-26T03:57:29.062Z,3.53
2023-02-26T03:59:57.598Z,3.40
2023-02-26T04:02:31.491Z,3.37
2023-02-26T04:05:07.764Z,3.10
2023-02-26T04:07:35.912Z,3.20
2023-02-26T04:10:04.828Z,3.40
2023-02-26T04:12:33.516Z,3.00
2023-02-26T04:15:05.289Z,2.87
2023-02-26T04:17:33.555Z,2.80
2023-02-26T04:20:05.928Z,3.03
2023-02-26T04:22:33.889Z,3.00
2023-02-26T04:25:01.883Z,3.00
2023-02-26T04:27:29.936Z,3.17
2023-02-26T04:29:57.914Z,2.53
2023-02-26T04:32:25.965Z,2.90
2023-02-26T04:34:54.005Z,2.57
2023-02-26T04:37:23.381Z,2.63
2023-02-26T04:39:51.550Z,2.60
2023-02-26T04:42:19.537Z,2.27
2023-02-26T04:44:47.536Z,2.20
2023-02-26T04:47:15.766Z,2.13
2023-02-26T04:49:45.681Z,2.40
2023-02-26T04:52:13.784Z,2.43
2023-02-26T04:54:43.200Z,2.80
2023-02-26T04:57:11.202Z,2.53
2023-02-26T04:59:39.576Z,2.60
2023-02-26T05:02:07.768Z,2.43
2023-02-26T05:04:35.820Z,2.43
2023-02-26T05:07:06.126Z,2.93
2023-02-26T05:09:34.233Z,2.60
2023-02-26T05:12:03.592Z,2.70
2023-02-26T05:14:31.597Z,2.20
2023-02-26T05:16:59.583Z,2.50
2023-02-26T05:19:30.656Z,2.80
2023-02-26T05:21:58.755Z,2.50
2023-02-26T05:24:26.788Z,3.00
2023-02-26T05:26:56.155Z,2.80
2023-02-26T05:29:26.990Z,2.80
2023-02-26T05:31:55.104Z,2.83
2023-02-26T05:34:23.230Z,2.90
2023-02-26T05:36:51.221Z,3.10
2023-02-26T05:39:19.213Z,3.60
2023-02-26T05:41:48.031Z,3.03
2023-02-26T05:44:16.000Z,3.10
2023-02-26T05:46:45.414Z,2.70
2023-02-26T05:49:13.508Z,2.93
2023-02-26T05:51:42.761Z,3.27
2023-02-26T05:54:11.355Z,3.07
2023-02-26T05:56:39.401Z,3.80
2023-02-26T05:59:07.404Z,3.17
2023-02-26T06:01:37.151Z,3.80
2023-02-26T06:04:07.334Z,3.47
2023-02-26T06:06:35.714Z,3.63
2023-02-26T06:09:03.902Z,3.70
2023-02-26T06:11:33.956Z,3.63
2023-02-26T06:14:02.281Z,3.30
2023-02-26T06:16:30.699Z,3.40
2023-02-26T06:18:58.695Z,3.17
2023-02-26T06:21:28.109Z,3.13
2023-02-26T06:23:56.098Z,3.57
2023-02-26T06:26:24.189Z,3.10
2023-02-26T06:28:52.407Z,3.40
2023-02-26T06:31:20.596Z,3.60
2023-02-26T06:33:48.880Z,3.20
2023-02-26T06:36:17.472Z,3.63
2023-02-26T06:38:46.870Z,3.63
2023-02-26T06:41:14.943Z,3.93
2023-02-26T06:43:42.944Z,3.57
2023-02-26T06:46:11.046Z,3.50
2023-02-26T06:48:39.340Z,3.67
2023-02-26T06:51:07.704Z,3.70
2023-02-26T06:53:35.742Z,3.83
2023-02-26T06:56:05.906Z,4.10
2023-02-26T06:58:33.896Z,4.13
2023-02-26T07:01:01.890Z,3.80
2023-02-26T07:03:31.484Z,4.40
2023-02-26T07:06:18.693Z,4.33
2023-02-26T07:08:47.789Z,4.13
2023-02-26T07:11:17.155Z,3.73
2023-02-26T07:13:45.171Z,3.13
2023-02-26T07:16:13.200Z,3.33
2023-02-26T07:18:41.481Z,3.47
2023-02-26T07:21:09.507Z,3.50
2023-02-26T07:23:37.534Z,3.00
2023-02-26T07:26:05.711Z,3.60
2023-02-26T07:28:36.112Z,3.70
2023-02-26T07:31:04.378Z,3.27
2023-02-26T07:33:32.484Z,4.30
2023-02-26T07:36:00.447Z,3.13
2023-02-26T07:38:28.601Z,3.73
2023-02-26T07:40:57.277Z,3.50
2023-02-26T07:43:28.087Z,2.80
2023-02-26T07:45:57.439Z,2.70
2023-02-26T07:48:25.418Z,3.00
2023-02-26T07:50:54.348Z,2.90
2023-02-26T07:53:22.926Z,3.20
2023-02-26T07:55:51.005Z,3.07
2023-02-26T07:58:19.458Z,3.10
2023-02-26T08:00:47.750Z,3.50
2023-02-26T08:03:17.088Z,3.23
2023-02-26T08:05:49.164Z,3.13
2023-02-26T08:08:17.213Z,3.10
2023-02-26T08:10:45.180Z,2.80
2023-02-26T08:13:13.165Z,2.80
2023-02-26T08:15:43.894Z,2.87
2023-02-26T08:18:12.370Z,3.93
2023-02-26T08:20:41.690Z,2.40
2023-02-26T08:23:12.671Z,3.00
2023-02-26T08:25:40.798Z,3.03
2023-02-26T08:28:09.139Z,3.00
2023-02-26T08:30:37.173Z,2.80
2023-02-26T08:33:05.642Z,2.63
2023-02-26T08:35:39.849Z,2.37
2023-02-26T08:38:15.002Z,2.87
2023-02-26T08:40:45.545Z,2.80
2023-02-26T08:43:13.542Z,3.13
2023-02-26T08:45:41.736Z,2.70
2023-02-26T08:48:10.877Z,3.10
2023-02-26T08:50:41.563Z,2.67
2023-02-26T08:53:10.989Z,2.37
2023-02-26T08:55:39.030Z,2.20
2023-02-26T08:58:11.387Z,1.93
2023-02-26T09:00:39.446Z,2.67
2023-02-26T09:03:07.533Z,2.17
2023-02-26T09:05:35.651Z,2.50
2023-02-26T09:08:03.746Z,2.13
2023-02-26T09:10:33.149Z,2.77
2023-02-26T09:13:01.678Z,2.57
2023-02-26T09:15:29.819Z,2.30
2023-02-26T09:17:57.878Z,2.40
2023-02-26T09:20:28.516Z,2.00
2023-02-26T09:22:56.543Z,2.20
2023-02-26T09:25:24.932Z,2.37
2023-02-26T09:27:54.345Z,2.20
2023-02-26T09:30:22.610Z,2.30
2023-02-26T09:32:50.628Z,2.70
2023-02-26T09:35:21.409Z,2.20
2023-02-26T09:37:51.411Z,2.37
2023-02-26T09:40:27.321Z,2.27
2023-02-26T09:43:16.619Z,2.20
2023-02-26T09:45:46.532Z,2.43
2023-02-26T09:48:18.360Z,2.57
2023-02-26T09:50:49.642Z,2.70
2023-02-26T09:53:22.854Z,2.50
2023-02-26T09:55:52.705Z,2.40
2023-02-26T09:58:28.119Z,1.90
2023-02-26T10:01:03.315Z,2.03
2023-02-26T10:03:37.246Z,2.13
2023-02-26T10:06:27.739Z,1.93
2023-02-26T10:09:30.643Z,2.37
2023-02-26T10:12:04.477Z,2.10
2023-02-26T10:14:38.646Z,2.10
2023-02-26T10:17:14.486Z,1.90
2023-02-26T10:19:54.119Z,1.77
2023-02-26T10:22:27.911Z,2.20
2023-02-26T10:25:02.797Z,2.20
2023-02-26T10:27:42.146Z,2.30
2023-02-26T10:30:19.193Z,2.33
2023-02-26T10:32:57.886Z,2.27
2023-02-26T10:35:30.273Z,2.33
2023-02-26T10:37:59.999Z,2.20
2023-02-26T10:40:39.482Z,2.40
2023-02-26T10:43:15.623Z,2.00
2023-02-26T10:46:00.061Z,2.30
2023-02-26T10:48:50.117Z,2.10
2023-02-26T10:51:20.603Z,2.50
2023-02-26T10:53:54.585Z,2.50
2023-02-26T10:56:26.283Z,2.40
2023-02-26T10:58:55.232Z,2.77
2023-02-26T11:01:27.609Z,2.67
2023-02-26T11:03:59.480Z,2.50
2023-02-26T11:06:34.726Z,2.60
2023-02-26T11:09:03.894Z,2.70
2023-02-26T11:11:43.825Z,3.70
2023-02-26T11:14:12.476Z,2.90
2023-02-26T11:16:49.142Z,2.93
2023-02-26T11:19:18.368Z,2.93
2023-02-26T11:21:50.757Z,2.97
2023-02-26T11:24:26.669Z,2.87
2023-02-26T11:27:06.331Z,2.50
2023-02-26T11:29:40.466Z,2.43
2023-02-26T11:32:19.104Z,2.90
2023-02-26T11:34:49.108Z,2.90
2023-02-26T11:37:20.991Z,2.70
2023-02-26T11:39:59.059Z,2.70
2023-02-26T11:42:29.020Z,3.30
2023-02-26T11:44:59.211Z,3.17
2023-02-26T11:47:32.109Z,2.80
2023-02-26T11:50:05.635Z,2.83
2023-02-26T11:52:36.197Z,3.40
2023-02-26T11:55:18.161Z,3.00
2023-02-26T11:57:46.433Z,3.70
2023-02-26T12:00:22.082Z,3.33
2023-02-26T12:02:51.851Z,4.30
2023-02-26T12:05:20.093Z,4.17
2023-02-26T12:07:48.818Z,3.80
2023-02-26T12:10:23.345Z,3.43
2023-02-26T12:13:03.671Z,3.83
2023-02-26T12:15:37.429Z,4.00
2023-02-26T12:18:34.046Z,4.93
2023-02-26T12:21:16.156Z,5.27
2023-02-26T12:24:19.068Z,3.17
2023-02-26T12:26:54.688Z,2.70
2023-02-26T12:29:49.590Z,2.90
2023-02-26T12:32:35.531Z,3.90
2023-02-26T12:35:48.373Z,3.80
2023-02-26T12:38:45.078Z,3.27
2023-02-26T12:41:40.581Z,3.53
2023-02-26T12:44:18.166Z,3.30
2023-02-26T12:46:58.547Z,3.53
2023-02-26T12:49:52.054Z,3.63
2023-02-26T12:52:42.708Z,3.70
2023-02-26T12:55:21.556Z,3.20
2023-02-26T12:58:06.812Z,3.80
2023-02-26T13:00:56.553Z,3.90
2023-02-26T13:03:44.598Z,4.07
2023-02-26T13:06:42.229Z,4.37
2023-02-26T13:09:20.419Z,4.50
2023-02-26T13:12:01.212Z,3.57
2023-02-26T13:14:41.952Z,4.07
2023-02-26T13:17:14.691Z,3.50
2023-02-26T13:19:48.310Z,3.40
2023-02-26T13:22:22.055Z,3.60
2023-02-26T13:24:57.473Z,3.63
2023-02-26T13:27:32.761Z,2.77
2023-02-26T13:30:16.716Z,3.17
2023-02-26T13:32:47.714Z,3.20
2023-02-26T13:35:22.748Z,3.40
2023-02-26T13:37:54.544Z,4.37
2023-02-26T13:40:48.539Z,3.67
2023-02-26T13:43:50.865Z,4.13
2023-02-26T13:46:29.407Z,4.47
2023-02-26T13:49:06.358Z,3.70
2023-02-26T13:51:37.644Z,3.93
2023-02-26T13:54:10.663Z,4.23
2023-02-26T13:56:56.384Z,4.20
2023-02-26T13:59:37.596Z,4.00
2023-02-26T14:02:38.126Z,5.13
2023-02-26T14:05:29.275Z,4.93
2023-02-26T14:08:19.544Z,4.67
2023-02-26T14:10:55.338Z,4.93
2023-02-26T14:13:27.463Z,4.47
2023-02-26T14:16:01.670Z,4.60
2023-02-26T14:18:37.762Z,3.70
2023-02-26T14:21:38.092Z,4.20
2023-02-26T14:24:16.108Z,4.30
2023-02-26T14:26:48.044Z,4.33
2023-02-26T14:29:21.908Z,5.63
2023-02-26T14:32:13.864Z,5.00
2023-02-26T14:34:51.251Z,5.83
2023-02-26T14:37:22.804Z,6.20
2023-02-26T14:39:56.042Z,6.00
2023-02-26T14:42:30.492Z,5.90
2023-02-26T14:45:10.603Z,6.67
2023-02-26T14:47:39.082Z,6.17
2023-02-26T14:50:12.223Z,5.67
2023-02-26T14:53:12.175Z,4.50
2023-02-26T14:55:48.805Z,4.03
2023-02-26T14:58:33.771Z,4.17
2023-02-26T15:01:20.841Z,4.40
2023-02-26T15:04:15.552Z,3.93
2023-02-26T15:07:04.729Z,4.60
2023-02-26T15:09:42.633Z,4.47
2023-02-26T15:12:24.030Z,6.00
2023-02-26T15:15:20.235Z,7.00
2023-02-26T15:18:04.716Z,5.83
2023-02-26T15:20:45.778Z,7.00
2023-02-26T15:23:38.518Z,8.97
2023-02-26T15:26:20.813Z,7.77
2023-02-26T15:28:50.183Z,6.67
2023-02-26T15:31:20.906Z,7.70
2023-02-26T15:33:50.340Z,6.63
2023-02-26T15:36:22.014Z,7.87
2023-02-26T15:38:56.139Z,7.67
2023-02-26T15:41:26.094Z,9.10
2023-02-26T15:44:00.440Z,9.77
2023-02-26T15:46:32.254Z,8.47
2023-02-26T15:49:04.109Z,8.07
2023-02-26T15:51:32.458Z,8.27
2023-02-26T15:54:03.488Z,7.27
2023-02-26T15:56:37.714Z,7.50
2023-02-26T15:59:14.293Z,7.37
2023-02-26T16:01:42.754Z,6.70
2023-02-26T16:04:16.117Z,7.23
2023-02-26T16:06:48.225Z,6.70
2023-02-26T16:09:22.063Z,7.13
2023-02-26T16:11:50.871Z,6.30
2023-02-26T16:14:22.876Z,6.80
2023-02-26T16:16:54.568Z,7.00
2023-02-26T16:19:33.006Z,6.73
2023-02-26T16:22:05.969Z,5.97
2023-02-26T16:24:36.072Z,5.93
2023-02-26T16:27:08.887Z,6.30
2023-02-26T16:29:38.194Z,5.47
2023-02-26T16:32:10.513Z,5.17
2023-02-26T16:34:44.061Z,5.00
2023-02-26T16:37:23.496Z,5.90
2023-02-26T16:39:58.332Z,6.30
2023-02-26T16:42:38.425Z,6.73
2023-02-26T16:45:19.954Z,6.50
2023-02-26T16:47:53.006Z,6.57
2023-02-26T16:50:25.311Z,8.20
2023-02-26T16:53:00.866Z,6.77
2023-02-26T16:55:32.343Z,6.40
2023-02-26T16:58:07.092Z,6.30
2023-02-26T17:00:37.459Z,6.43
2023-02-26T17:03:13.293Z,6.70
2023-02-26T17:05:44.974Z,6.43
2023-02-26T17:08:17.706Z,7.03
2023-02-26T17:10:49.899Z,7.30
2023-02-26T17:13:25.303Z,7.53
2023-02-26T17:15:54.979Z,6.90
2023-02-26T17:18:23.114Z,7.53
2023-02-26T17:20:54.376Z,8.40
2023-02-26T17:23:31.574Z,8.50
2023-02-26T17:26:02.664Z,6.40
2023-02-26T17:28:35.425Z,6.47
2023-02-26T17:31:04.209Z,5.73
2023-02-26T17:33:33.513Z,5.27
2023-02-26T17:36:04.001Z,5.80
2023-02-26T17:38:33.392Z,5.90
2023-02-26T17:41:03.024Z,5.47
2023-02-26T17:43:31.019Z,5.47
2023-02-26T17:45:59.561Z,5.30
2023-02-26T17:48:30.276Z,6.10
2023-02-26T17:50:59.238Z,7.63
2023-02-26T17:53:30.859Z,8.27
2023-02-26T17:56:01.843Z,7.67
2023-02-26T17:58:34.966Z,7.93
2023-02-26T18:01:04.525Z,7.97
2023-02-26T18:03:32.912Z,8.40
2023-02-26T18:06:01.458Z,8.40
2023-02-26T18:08:32.547Z,8.93
2023-02-26T18:11:01.520Z,8.73
2023-02-26T18:13:31.611Z,8.40
2023-02-26T18:16:02.810Z,8.23
2023-02-26T18:18:33.130Z,7.67
2023-02-26T18:21:02.398Z,7.83
2023-02-26T18:23:31.405Z,7.13
2023-02-26T18:25:59.610Z,7.30
2023-02-26T18:28:30.476Z,10.77
2023-02-26T18:30:59.676Z,12.47
2023-02-26T18:33:30.047Z,12.33
2023-02-26T18:36:01.057Z,12.17
2023-02-26T18:38:29.648Z,11.20
2023-02-26T18:40:58.756Z,9.80
2023-02-26T18:43:27.806Z,10.63
2023-02-26T18:46:01.974Z,9.60
2023-02-26T18:48:30.084Z,9.50
2023-02-26T18:50:59.344Z,8.13
2023-02-26T18:53:27.653Z,7.37
2023-02-26T18:55:58.628Z,6.33
2023-02-26T18:58:28.834Z,6.43
2023-02-26T19:00:56.944Z,6.83
2023-02-26T19:03:32.904Z,6.63
2023-02-26T19:06:02.846Z,6.70
2023-02-26T19:08:35.191Z,7.10
2023-02-26T19:11:03.406Z,6.63
2023-02-26T19:13:37.114Z,6.20
2023-02-26T19:16:06.809Z,6.90
2023-02-26T19:18:37.399Z,7.37
2023-02-26T19:21:06.170Z,7.57
2023-02-26T19:23:34.581Z,8.70
2023-02-26T19:26:04.344Z,8.67
2023-02-26T19:28:38.704Z,9.57
2023-02-26T19:31:11.579Z,10.83
2023-02-26T19:33:48.207Z,11.30
2023-02-26T19:36:26.769Z,11.23
2023-02-26T19:38:58.366Z,11.37
2023-02-26T19:41:27.057Z,10.30
2023-02-26T19:43:55.430Z,8.87
2023-02-26T19:46:24.168Z,8.93
2023-02-26T19:48:56.669Z,7.57
2023-02-26T19:51:25.086Z,8.73
2023-02-26T19:53:58.432Z,8.00
2023-02-26T19:56:28.451Z,8.03
2023-02-26T19:58:56.687Z,6.97
2023-02-26T20:01:30.344Z,6.97
2023-02-26T20:04:05.770Z,7.37
2023-02-26T20:06:43.060Z,9.33
2023-02-26T20:09:12.201Z,9.53
2023-02-26T20:11:43.271Z,10.77
2023-02-26T20:14:26.730Z,10.53
2023-02-26T20:16:59.663Z,10.50
2023-02-26T20:19:31.068Z,11.67
2023-02-26T20:22:08.002Z,13.13
2023-02-26T20:24:36.643Z,12.27
2023-02-26T20:27:08.550Z,12.60
2023-02-26T20:29:36.766Z,14.67
2023-02-26T20:32:08.093Z,13.50
2023-02-26T20:34:40.902Z,14.00
2023-02-26T20:37:14.082Z,12.50
2023-02-26T20:39:44.069Z,10.80
2023-02-26T20:42:20.733Z,12.13
2023-02-26T20:45:02.063Z,12.20
2023-02-26T20:47:31.451Z,11.77
2023-02-26T20:50:00.905Z,11.17
2023-02-26T20:52:29.328Z,10.33
2023-02-26T20:54:57.375Z,9.77
2023-02-26T20:57:29.469Z,9.83
2023-02-26T20:59:57.539Z,9.00
2023-02-26T21:02:25.811Z,8.27
2023-02-26T21:04:53.976Z,8.13
2023-02-26T21:07:23.517Z,8.90
2023-02-26T21:09:56.544Z,8.00
2023-02-26T21:12:26.761Z,7.43
2023-02-26T21:14:58.453Z,7.80
2023-02-26T21:17:28.652Z,7.70
2023-02-26T21:19:59.664Z,7.60
2023-02-26T21:22:30.727Z,7.40
2023-02-26T21:24:58.803Z,6.87
2023-02-26T21:27:28.455Z,7.53
2023-02-26T21:29:56.487Z,7.07
2023-02-26T21:32:27.244Z,7.00
2023-02-26T21:34:55.686Z,6.67
2023-02-26T21:37:23.696Z,7.13
2023-02-26T21:39:53.163Z,7.13
2023-02-26T21:42:22.460Z,7.17
2023-02-26T21:44:50.649Z,7.20
2023-02-26T21:47:18.957Z,7.67
2023-02-26T21:49:46.923Z,7.10
2023-02-26T21:52:16.021Z,7.43
2023-02-26T21:54:43.994Z,7.47
2023-02-26T21:57:13.344Z,7.40
2023-02-26T21:59:41.326Z,7.37
2023-02-26T22:02:11.873Z,7.57
2023-02-26T22:04:39.867Z,7.33
2023-02-26T22:07:09.524Z,7.87
2023-02-26T22:09:37.587Z,7.03
2023-02-26T22:12:07.838Z,7.40
2023-02-26T22:14:37.910Z,8.10
2023-02-26T22:17:06.274Z,8.00
2023-02-26T22:19:34.259Z,7.60
2023-02-26T22:22:03.910Z,8.47
2023-02-26T22:24:31.951Z,8.33
2023-02-26T22:27:00.042Z,7.30
2023-02-26T22:29:28.061Z,7.93
2023-02-26T22:31:57.781Z,7.63
2023-02-26T22:34:26.087Z,8.00
2023-02-26T22:36:54.033Z,8.40
2023-02-26T22:39:22.268Z,8.23
2023-02-26T22:41:50.364Z,7.97
2023-02-26T22:44:18.362Z,8.90
2023-02-26T22:46:49.963Z,8.13
2023-02-26T22:49:19.831Z,9.63
2023-02-26T22:51:50.561Z,8.67
2023-02-26T22:54:18.523Z,8.90
2023-02-26T22:56:46.527Z,8.63
2023-02-26T22:59:14.546Z,10.40
2023-02-26T23:01:42.997Z,9.87
2023-02-26T23:04:11.559Z,11.23
2023-02-26T23:06:41.297Z,9.47
2023-02-26T23:09:09.258Z,9.83
2023-02-26T23:11:38.299Z,9.80
2023-02-26T23:14:06.543Z,9.50
2023-02-26T23:16:34.666Z,10.33
2023-02-26T23:19:02.948Z,9.90
2023-02-26T23:21:31.308Z,10.77
2023-02-26T23:24:00.618Z,9.63
2023-02-26T23:26:28.650Z,10.37
2023-02-26T23:28:56.650Z,10.73
2023-02-26T23:31:25.463Z,10.73
2023-02-26T23:33:53.888Z,10.60
2023-02-26T23:36:21.895Z,10.30
2023-02-26T23:38:49.870Z,11.07
2023-02-26T23:41:19.917Z,10.50
2023-02-26T23:43:47.891Z,9.90
2023-02-26T23:46:15.965Z,9.93
2023-02-26T23:48:44.223Z,10.33
2023-02-26T23:51:12.520Z,10.13
2023-02-26T23:53:40.712Z,10.33
2023-02-26T23:56:09.235Z,10.70
2023-02-26T23:58:38.558Z,9.50
